sensor_id;sensor_type;location;lat;lon;timestamp;P1;durP1;ratioP1;P2;durP2;ratioP2
33190;SDS011;19554;42.652;23.364;2023-08-21T00:01:14;7.82;;;5.85;;
33190;SDS011;19554;42.652;23.364;2023-08-21T00:03:39;10.50;;;6.10;;
33190;SDS011;19554;42.652;23.364;2023-08-21T00:06:05;11.20;;;6.75;;
33190;SDS011;19554;42.652;23.364;2023-08-21T00:08:30;6.78;;;6.05;;
33190;SDS011;19554;42.652;23.364;2023-08-21T00:10:55;10.43;;;6.18;;
33190;SDS011;19554;42.652;23.364;2023-08-21T00:13:21;8.05;;;6.22;;
33190;SDS011;19554;42.652;23.364;2023-08-21T00:15:46;10.88;;;6.07;;
33190;SDS011;19554;42.652;23.364;2023-08-21T00:18:12;7.57;;;6.13;;
33190;SDS011;19554;42.652;23.364;2023-08-21T00:20:37;12.60;;;6.97;;
33190;SDS011;19554;42.652;23.364;2023-08-21T00:23:02;9.00;;;6.60;;
33190;SDS011;19554;42.652;23.364;2023-08-21T00:25:28;8.80;;;6.30;;
33190;SDS011;19554;42.652;23.364;2023-08-21T00:27:53;9.57;;;6.07;;
33190;SDS011;19554;42.652;23.364;2023-08-21T00:30:19;12.02;;;7.32;;
33190;SDS011;19554;42.652;23.364;2023-08-21T00:32:44;19.63;;;14.93;;
33190;SDS011;19554;42.652;23.364;2023-08-21T00:35:10;18.15;;;12.57;;
33190;SDS011;19554;42.652;23.364;2023-08-21T00:37:35;18.45;;;13.30;;
33190;SDS011;19554;42.652;23.364;2023-08-21T00:40:00;8.75;;;6.22;;
33190;SDS011;19554;42.652;23.364;2023-08-21T00:42:26;14.40;;;6.38;;
33190;SDS011;19554;42.652;23.364;2023-08-21T00:44:52;9.45;;;7.65;;
33190;SDS011;19554;42.652;23.364;2023-08-21T00:47:17;10.48;;;7.07;;
33190;SDS011;19554;42.652;23.364;2023-08-21T00:49:44;12.50;;;7.32;;
33190;SDS011;19554;42.652;23.364;2023-08-21T00:52:10;9.10;;;7.43;;
33190;SDS011;19554;42.652;23.364;2023-08-21T00:54:37;11.55;;;6.97;;
33190;SDS011;19554;42.652;23.364;2023-08-21T00:57:03;9.88;;;6.93;;
33190;SDS011;19554;42.652;23.364;2023-08-21T00:59:29;8.65;;;6.32;;
33190;SDS011;19554;42.652;23.364;2023-08-21T01:01:55;10.27;;;6.80;;
33190;SDS011;19554;42.652;23.364;2023-08-21T01:04:20;12.68;;;5.93;;
33190;SDS011;19554;42.652;23.364;2023-08-21T01:06:47;9.88;;;7.57;;
33190;SDS011;19554;42.652;23.364;2023-08-21T01:14:29;8.05;;;5.75;;
33190;SDS011;19554;42.652;23.364;2023-08-21T01:16:59;14.25;;;7.18;;
33190;SDS011;19554;42.652;23.364;2023-08-21T01:19:31;8.70;;;6.38;;
33190;SDS011;19554;42.652;23.364;2023-08-21T01:22:02;10.05;;;6.55;;
33190;SDS011;19554;42.652;23.364;2023-08-21T01:24:27;7.63;;;6.13;;
33190;SDS011;19554;42.652;23.364;2023-08-21T01:26:53;8.20;;;6.03;;
33190;SDS011;19554;42.652;23.364;2023-08-21T01:29:18;10.20;;;6.13;;
33190;SDS011;19554;42.652;23.364;2023-08-21T01:31:45;10.50;;;7.03;;
33190;SDS011;19554;42.652;23.364;2023-08-21T01:34:17;8.52;;;6.43;;
33190;SDS011;19554;42.652;23.364;2023-08-21T01:36:42;10.32;;;7.05;;
33190;SDS011;19554;42.652;23.364;2023-08-21T01:39:09;8.40;;;6.53;;
33190;SDS011;19554;42.652;23.364;2023-08-21T01:41:35;8.98;;;6.22;;
33190;SDS011;19554;42.652;23.364;2023-08-21T01:44:00;11.30;;;6.45;;
33190;SDS011;19554;42.652;23.364;2023-08-21T01:46:26;9.13;;;6.00;;
33190;SDS011;19554;42.652;23.364;2023-08-21T01:48:51;8.88;;;6.43;;
33190;SDS011;19554;42.652;23.364;2023-08-21T01:51:17;8.52;;;6.07;;
33190;SDS011;19554;42.652;23.364;2023-08-21T01:53:42;9.77;;;5.82;;
33190;SDS011;19554;42.652;23.364;2023-08-21T01:56:07;7.38;;;6.50;;
33190;SDS011;19554;42.652;23.364;2023-08-21T01:58:33;13.02;;;6.50;;
33190;SDS011;19554;42.652;23.364;2023-08-21T02:00:58;9.38;;;6.85;;
33190;SDS011;19554;42.652;23.364;2023-08-21T02:03:26;9.98;;;6.63;;
33190;SDS011;19554;42.652;23.364;2023-08-21T02:05:55;9.10;;;6.70;;
33190;SDS011;19554;42.652;23.364;2023-08-21T02:08:25;6.72;;;5.97;;
33190;SDS011;19554;42.652;23.364;2023-08-21T02:10:56;7.95;;;6.65;;
33190;SDS011;19554;42.652;23.364;2023-08-21T02:13:22;11.07;;;6.13;;
33190;SDS011;19554;42.652;23.364;2023-08-21T02:15:47;16.13;;;6.43;;
33190;SDS011;19554;42.652;23.364;2023-08-21T02:18:13;13.55;;;7.20;;
33190;SDS011;19554;42.652;23.364;2023-08-21T02:20:38;10.40;;;7.50;;
33190;SDS011;19554;42.652;23.364;2023-08-21T02:23:03;11.40;;;6.13;;
33190;SDS011;19554;42.652;23.364;2023-08-21T02:25:29;8.10;;;6.15;;
33190;SDS011;19554;42.652;23.364;2023-08-21T02:27:56;17.35;;;7.57;;
33190;SDS011;19554;42.652;23.364;2023-08-21T02:30:22;10.70;;;7.03;;
33190;SDS011;19554;42.652;23.364;2023-08-21T02:32:50;15.48;;;6.97;;
33190;SDS011;19554;42.652;23.364;2023-08-21T02:35:17;8.38;;;6.50;;
33190;SDS011;19554;42.652;23.364;2023-08-21T02:37:42;8.90;;;6.60;;
33190;SDS011;19554;42.652;23.364;2023-08-21T02:40:08;9.35;;;6.25;;
33190;SDS011;19554;42.652;23.364;2023-08-21T02:42:33;11.95;;;6.88;;
33190;SDS011;19554;42.652;23.364;2023-08-21T02:44:59;11.45;;;7.13;;
33190;SDS011;19554;42.652;23.364;2023-08-21T02:47:24;9.05;;;7.32;;
33190;SDS011;19554;42.652;23.364;2023-08-21T02:49:50;10.18;;;7.25;;
33190;SDS011;19554;42.652;23.364;2023-08-21T02:52:15;15.13;;;8.38;;
33190;SDS011;19554;42.652;23.364;2023-08-21T02:54:42;9.68;;;8.07;;
33190;SDS011;19554;42.652;23.364;2023-08-21T02:57:07;11.98;;;8.00;;
33190;SDS011;19554;42.652;23.364;2023-08-21T02:59:33;10.57;;;7.45;;
33190;SDS011;19554;42.652;23.364;2023-08-21T03:01:58;14.88;;;7.57;;
33190;SDS011;19554;42.652;23.364;2023-08-21T03:04:24;9.98;;;7.80;;
33190;SDS011;19554;42.652;23.364;2023-08-21T03:06:49;10.52;;;7.65;;
33190;SDS011;19554;42.652;23.364;2023-08-21T03:09:14;9.57;;;7.70;;
33190;SDS011;19554;42.652;23.364;2023-08-21T03:11:40;15.95;;;7.22;;
33190;SDS011;19554;42.652;23.364;2023-08-21T03:14:05;11.13;;;6.78;;
33190;SDS011;19554;42.652;23.364;2023-08-21T03:16:30;11.13;;;6.93;;
33190;SDS011;19554;42.652;23.364;2023-08-21T03:18:56;8.63;;;7.38;;
33190;SDS011;19554;42.652;23.364;2023-08-21T03:21:24;9.65;;;6.60;;
33190;SDS011;19554;42.652;23.364;2023-08-21T03:23:54;8.80;;;6.35;;
33190;SDS011;19554;42.652;23.364;2023-08-21T03:26:21;9.57;;;7.38;;
33190;SDS011;19554;42.652;23.364;2023-08-21T03:28:46;10.13;;;6.47;;
33190;SDS011;19554;42.652;23.364;2023-08-21T03:31:11;10.52;;;7.05;;
33190;SDS011;19554;42.652;23.364;2023-08-21T03:33:37;8.43;;;6.88;;
33190;SDS011;19554;42.652;23.364;2023-08-21T03:36:02;9.63;;;7.05;;
33190;SDS011;19554;42.652;23.364;2023-08-21T03:38:28;14.18;;;7.30;;
33190;SDS011;19554;42.652;23.364;2023-08-21T03:40:53;12.55;;;7.45;;
33190;SDS011;19554;42.652;23.364;2023-08-21T03:43:19;8.32;;;6.97;;
33190;SDS011;19554;42.652;23.364;2023-08-21T03:45:44;10.75;;;6.80;;
33190;SDS011;19554;42.652;23.364;2023-08-21T03:48:09;13.38;;;6.95;;
33190;SDS011;19554;42.652;23.364;2023-08-21T03:50:35;11.35;;;7.20;;
33190;SDS011;19554;42.652;23.364;2023-08-21T03:53:00;12.23;;;7.28;;
33190;SDS011;19554;42.652;23.364;2023-08-21T03:55:25;12.27;;;7.40;;
33190;SDS011;19554;42.652;23.364;2023-08-21T03:57:51;24.08;;;7.68;;
33190;SDS011;19554;42.652;23.364;2023-08-21T04:00:16;18.17;;;8.25;;
33190;SDS011;19554;42.652;23.364;2023-08-21T04:02:42;22.45;;;8.80;;
33190;SDS011;19554;42.652;23.364;2023-08-21T04:05:07;13.48;;;7.72;;
33190;SDS011;19554;42.652;23.364;2023-08-21T04:07:33;14.30;;;7.25;;
33190;SDS011;19554;42.652;23.364;2023-08-21T04:09:58;10.88;;;7.28;;
33190;SDS011;19554;42.652;23.364;2023-08-21T04:12:23;9.82;;;6.50;;
33190;SDS011;19554;42.652;23.364;2023-08-21T04:14:49;11.40;;;7.57;;
33190;SDS011;19554;42.652;23.364;2023-08-21T04:17:14;13.18;;;7.85;;
33190;SDS011;19554;42.652;23.364;2023-08-21T04:19:39;17.42;;;7.22;;
33190;SDS011;19554;42.652;23.364;2023-08-21T04:22:06;15.48;;;7.40;;
33190;SDS011;19554;42.652;23.364;2023-08-21T04:24:31;13.75;;;7.32;;
33190;SDS011;19554;42.652;23.364;2023-08-21T04:26:57;14.93;;;6.68;;
33190;SDS011;19554;42.652;23.364;2023-08-21T04:29:23;10.18;;;7.07;;
33190;SDS011;19554;42.652;23.364;2023-08-21T04:31:48;16.08;;;7.65;;
33190;SDS011;19554;42.652;23.364;2023-08-21T04:34:14;15.43;;;8.05;;
33190;SDS011;19554;42.652;23.364;2023-08-21T04:36:39;15.05;;;8.02;;
33190;SDS011;19554;42.652;23.364;2023-08-21T04:39:04;12.70;;;7.78;;
33190;SDS011;19554;42.652;23.364;2023-08-21T04:41:30;28.13;;;8.20;;
33190;SDS011;19554;42.652;23.364;2023-08-21T04:43:55;11.35;;;7.32;;
33190;SDS011;19554;42.652;23.364;2023-08-21T04:46:21;17.75;;;7.20;;
33190;SDS011;19554;42.652;23.364;2023-08-21T04:48:46;13.25;;;7.20;;
33190;SDS011;19554;42.652;23.364;2023-08-21T04:51:12;12.20;;;7.50;;
33190;SDS011;19554;42.652;23.364;2023-08-21T04:53:38;19.20;;;7.38;;
33190;SDS011;19554;42.652;23.364;2023-08-21T04:56:03;14.45;;;7.53;;
33190;SDS011;19554;42.652;23.364;2023-08-21T04:58:29;16.10;;;8.02;;
33190;SDS011;19554;42.652;23.364;2023-08-21T05:00:54;15.02;;;7.43;;
33190;SDS011;19554;42.652;23.364;2023-08-21T05:03:20;12.95;;;6.50;;
33190;SDS011;19554;42.652;23.364;2023-08-21T05:05:52;18.65;;;8.80;;
33190;SDS011;19554;42.652;23.364;2023-08-21T05:08:21;16.15;;;8.35;;
33190;SDS011;19554;42.652;23.364;2023-08-21T05:10:48;16.27;;;8.73;;
33190;SDS011;19554;42.652;23.364;2023-08-21T05:13:13;12.30;;;8.52;;
33190;SDS011;19554;42.652;23.364;2023-08-21T05:15:42;12.15;;;8.07;;
33190;SDS011;19554;42.652;23.364;2023-08-21T05:18:07;13.63;;;7.65;;
33190;SDS011;19554;42.652;23.364;2023-08-21T05:20:33;17.63;;;9.38;;
33190;SDS011;19554;42.652;23.364;2023-08-21T05:22:58;12.45;;;8.23;;
33190;SDS011;19554;42.652;23.364;2023-08-21T05:25:24;11.50;;;8.43;;
33190;SDS011;19554;42.652;23.364;2023-08-21T05:27:49;19.52;;;11.88;;
33190;SDS011;19554;42.652;23.364;2023-08-21T05:30:14;16.30;;;9.65;;
33190;SDS011;19554;42.652;23.364;2023-08-21T05:32:40;13.45;;;8.63;;
33190;SDS011;19554;42.652;23.364;2023-08-21T05:35:05;21.65;;;9.07;;
33190;SDS011;19554;42.652;23.364;2023-08-21T05:37:33;14.50;;;8.00;;
33190;SDS011;19554;42.652;23.364;2023-08-21T05:39:58;12.35;;;8.60;;
33190;SDS011;19554;42.652;23.364;2023-08-21T05:42:24;11.43;;;8.07;;
33190;SDS011;19554;42.652;23.364;2023-08-21T05:44:49;14.50;;;8.57;;
33190;SDS011;19554;42.652;23.364;2023-08-21T05:47:14;12.45;;;7.95;;
33190;SDS011;19554;42.652;23.364;2023-08-21T05:49:40;11.63;;;8.85;;
33190;SDS011;19554;42.652;23.364;2023-08-21T05:52:05;12.05;;;9.43;;
33190;SDS011;19554;42.652;23.364;2023-08-21T05:54:31;13.93;;;9.00;;
33190;SDS011;19554;42.652;23.364;2023-08-21T05:56:56;12.00;;;9.07;;
33190;SDS011;19554;42.652;23.364;2023-08-21T05:59:30;18.42;;;9.05;;
33190;SDS011;19554;42.652;23.364;2023-08-21T06:01:56;18.55;;;8.60;;
33190;SDS011;19554;42.652;23.364;2023-08-21T06:04:22;14.63;;;8.98;;
33190;SDS011;19554;42.652;23.364;2023-08-21T06:06:47;12.55;;;8.88;;
33190;SDS011;19554;42.652;23.364;2023-08-21T06:09:13;13.43;;;9.82;;
33190;SDS011;19554;42.652;23.364;2023-08-21T06:11:38;14.57;;;9.65;;
33190;SDS011;19554;42.652;23.364;2023-08-21T06:14:04;25.88;;;8.38;;
33190;SDS011;19554;42.652;23.364;2023-08-21T06:16:29;14.98;;;8.60;;
33190;SDS011;19554;42.652;23.364;2023-08-21T06:18:55;15.55;;;8.35;;
33190;SDS011;19554;42.652;23.364;2023-08-21T06:21:20;17.85;;;9.43;;
33190;SDS011;19554;42.652;23.364;2023-08-21T06:23:45;12.70;;;8.25;;
33190;SDS011;19554;42.652;23.364;2023-08-21T06:26:11;13.55;;;8.52;;
33190;SDS011;19554;42.652;23.364;2023-08-21T06:28:36;17.27;;;10.90;;
33190;SDS011;19554;42.652;23.364;2023-08-21T06:31:01;14.43;;;8.15;;
33190;SDS011;19554;42.652;23.364;2023-08-21T06:33:28;14.23;;;7.30;;
33190;SDS011;19554;42.652;23.364;2023-08-21T06:35:53;14.40;;;8.90;;
33190;SDS011;19554;42.652;23.364;2023-08-21T06:38:19;13.80;;;8.52;;
33190;SDS011;19554;42.652;23.364;2023-08-21T06:40:45;14.40;;;8.82;;
33190;SDS011;19554;42.652;23.364;2023-08-21T06:43:11;14.60;;;7.90;;
33190;SDS011;19554;42.652;23.364;2023-08-21T06:45:36;14.25;;;8.50;;
33190;SDS011;19554;42.652;23.364;2023-08-21T06:48:01;10.88;;;8.07;;
33190;SDS011;19554;42.652;23.364;2023-08-21T06:50:27;14.02;;;7.85;;
33190;SDS011;19554;42.652;23.364;2023-08-21T06:52:53;13.98;;;8.63;;
33190;SDS011;19554;42.652;23.364;2023-08-21T06:55:18;12.00;;;7.60;;
33190;SDS011;19554;42.652;23.364;2023-08-21T06:57:44;11.73;;;7.70;;
33190;SDS011;19554;42.652;23.364;2023-08-21T07:00:09;17.58;;;7.60;;
33190;SDS011;19554;42.652;23.364;2023-08-21T07:02:35;14.55;;;7.80;;
33190;SDS011;19554;42.652;23.364;2023-08-21T07:05:00;17.50;;;8.15;;
33190;SDS011;19554;42.652;23.364;2023-08-21T07:07:26;10.40;;;7.28;;
33190;SDS011;19554;42.652;23.364;2023-08-21T07:09:51;12.02;;;7.18;;
33190;SDS011;19554;42.652;23.364;2023-08-21T07:12:17;14.18;;;7.63;;
33190;SDS011;19554;42.652;23.364;2023-08-21T07:14:42;12.50;;;7.55;;
33190;SDS011;19554;42.652;23.364;2023-08-21T07:17:07;12.85;;;7.78;;
33190;SDS011;19554;42.652;23.364;2023-08-21T07:19:33;18.65;;;7.35;;
33190;SDS011;19554;42.652;23.364;2023-08-21T07:21:58;16.30;;;7.05;;
33190;SDS011;19554;42.652;23.364;2023-08-21T07:24:23;11.98;;;7.65;;
33190;SDS011;19554;42.652;23.364;2023-08-21T07:26:49;14.13;;;8.18;;
33190;SDS011;19554;42.652;23.364;2023-08-21T07:29:14;12.43;;;8.15;;
33190;SDS011;19554;42.652;23.364;2023-08-21T07:31:40;12.65;;;7.65;;
33190;SDS011;19554;42.652;23.364;2023-08-21T07:34:05;13.18;;;7.38;;
33190;SDS011;19554;42.652;23.364;2023-08-21T07:36:31;16.40;;;7.07;;
33190;SDS011;19554;42.652;23.364;2023-08-21T07:38:57;11.18;;;6.90;;
33190;SDS011;19554;42.652;23.364;2023-08-21T07:41:22;17.58;;;6.63;;
33190;SDS011;19554;42.652;23.364;2023-08-21T07:43:48;13.23;;;7.32;;
33190;SDS011;19554;42.652;23.364;2023-08-21T07:46:13;10.13;;;6.28;;
33190;SDS011;19554;42.652;23.364;2023-08-21T07:48:41;17.35;;;6.82;;
33190;SDS011;19554;42.652;23.364;2023-08-21T07:51:07;8.45;;;6.35;;
33190;SDS011;19554;42.652;23.364;2023-08-21T07:53:33;8.70;;;6.70;;
33190;SDS011;19554;42.652;23.364;2023-08-21T07:55:59;8.40;;;6.55;;
33190;SDS011;19554;42.652;23.364;2023-08-21T07:58:25;12.15;;;7.00;;
33190;SDS011;19554;42.652;23.364;2023-08-21T08:00:51;9.45;;;6.32;;
33190;SDS011;19554;42.652;23.364;2023-08-21T08:03:16;7.45;;;5.45;;
33190;SDS011;19554;42.652;23.364;2023-08-21T08:05:41;10.05;;;5.63;;
33190;SDS011;19554;42.652;23.364;2023-08-21T08:08:07;11.18;;;5.32;;
33190;SDS011;19554;42.652;23.364;2023-08-21T08:10:33;7.60;;;5.90;;
33190;SDS011;19554;42.652;23.364;2023-08-21T08:13:01;7.40;;;6.15;;
33190;SDS011;19554;42.652;23.364;2023-08-21T08:15:27;12.25;;;5.93;;
33190;SDS011;19554;42.652;23.364;2023-08-21T08:17:53;11.90;;;5.68;;
33190;SDS011;19554;42.652;23.364;2023-08-21T08:20:19;6.60;;;5.10;;
33190;SDS011;19554;42.652;23.364;2023-08-21T08:22:45;7.07;;;5.38;;
33190;SDS011;19554;42.652;23.364;2023-08-21T08:25:10;12.07;;;6.18;;
33190;SDS011;19554;42.652;23.364;2023-08-21T08:27:36;12.25;;;5.65;;
33190;SDS011;19554;42.652;23.364;2023-08-21T08:30:02;6.80;;;5.53;;
33190;SDS011;19554;42.652;23.364;2023-08-21T08:32:28;10.90;;;5.57;;
33190;SDS011;19554;42.652;23.364;2023-08-21T08:34:54;13.18;;;5.93;;
33190;SDS011;19554;42.652;23.364;2023-08-21T08:37:19;8.75;;;5.50;;
33190;SDS011;19554;42.652;23.364;2023-08-21T08:39:46;8.55;;;5.65;;
33190;SDS011;19554;42.652;23.364;2023-08-21T08:42:12;8.65;;;5.60;;
33190;SDS011;19554;42.652;23.364;2023-08-21T08:44:38;11.10;;;7.25;;
33190;SDS011;19554;42.652;23.364;2023-08-21T08:47:06;8.35;;;6.43;;
33190;SDS011;19554;42.652;23.364;2023-08-21T08:49:32;11.15;;;5.63;;
33190;SDS011;19554;42.652;23.364;2023-08-21T08:51:59;7.07;;;5.30;;
33190;SDS011;19554;42.652;23.364;2023-08-21T08:54:25;7.68;;;5.72;;
33190;SDS011;19554;42.652;23.364;2023-08-21T08:56:52;9.25;;;6.10;;
33190;SDS011;19554;42.652;23.364;2023-08-21T08:59:18;9.45;;;5.80;;
33190;SDS011;19554;42.652;23.364;2023-08-21T09:01:43;7.70;;;5.85;;
33190;SDS011;19554;42.652;23.364;2023-08-21T09:04:09;8.00;;;5.82;;
33190;SDS011;19554;42.652;23.364;2023-08-21T09:06:35;9.18;;;5.43;;
33190;SDS011;19554;42.652;23.364;2023-08-21T09:09:01;12.35;;;5.80;;
33190;SDS011;19554;42.652;23.364;2023-08-21T09:11:26;10.60;;;5.70;;
33190;SDS011;19554;42.652;23.364;2023-08-21T09:13:53;11.85;;;6.13;;
33190;SDS011;19554;42.652;23.364;2023-08-21T09:16:20;12.95;;;6.20;;
33190;SDS011;19554;42.652;23.364;2023-08-21T09:18:50;8.13;;;5.63;;
33190;SDS011;19554;42.652;23.364;2023-08-21T09:21:21;12.85;;;5.10;;
33190;SDS011;19554;42.652;23.364;2023-08-21T09:23:48;9.15;;;4.97;;
33190;SDS011;19554;42.652;23.364;2023-08-21T09:26:21;11.32;;;5.35;;
33190;SDS011;19554;42.652;23.364;2023-08-21T09:28:49;8.68;;;5.60;;
33190;SDS011;19554;42.652;23.364;2023-08-21T09:31:15;8.65;;;5.57;;
33190;SDS011;19554;42.652;23.364;2023-08-21T09:33:54;12.60;;;5.85;;
33190;SDS011;19554;42.652;23.364;2023-08-21T09:36:20;7.53;;;5.57;;
33190;SDS011;19554;42.652;23.364;2023-08-21T09:38:45;11.10;;;4.60;;
33190;SDS011;19554;42.652;23.364;2023-08-21T09:41:11;9.55;;;5.20;;
33190;SDS011;19554;42.652;23.364;2023-08-21T09:43:40;6.95;;;4.63;;
33190;SDS011;19554;42.652;23.364;2023-08-21T09:46:07;8.70;;;5.70;;
33190;SDS011;19554;42.652;23.364;2023-08-21T09:48:33;7.68;;;5.15;;
33190;SDS011;19554;42.652;23.364;2023-08-21T09:51:00;7.30;;;4.90;;
33190;SDS011;19554;42.652;23.364;2023-08-21T09:53:29;5.85;;;5.18;;
33190;SDS011;19554;42.652;23.364;2023-08-21T09:55:55;9.50;;;5.65;;
33190;SDS011;19554;42.652;23.364;2023-08-21T09:58:21;11.48;;;5.18;;
33190;SDS011;19554;42.652;23.364;2023-08-21T10:00:47;11.20;;;5.40;;
33190;SDS011;19554;42.652;23.364;2023-08-21T10:03:14;7.25;;;5.10;;
33190;SDS011;19554;42.652;23.364;2023-08-21T10:05:44;9.75;;;5.03;;
33190;SDS011;19554;42.652;23.364;2023-08-21T10:08:12;8.45;;;4.65;;
33190;SDS011;19554;42.652;23.364;2023-08-21T10:10:41;6.03;;;4.65;;
33190;SDS011;19554;42.652;23.364;2023-08-21T10:13:06;10.52;;;5.45;;
33190;SDS011;19554;42.652;23.364;2023-08-21T10:15:33;7.60;;;4.78;;
33190;SDS011;19554;42.652;23.364;2023-08-21T10:20:51;11.27;;;5.10;;
33190;SDS011;19554;42.652;23.364;2023-08-21T10:23:27;12.77;;;5.70;;
33190;SDS011;19554;42.652;23.364;2023-08-21T10:25:59;5.57;;;4.70;;
33190;SDS011;19554;42.652;23.364;2023-08-21T10:34:02;12.50;;;5.75;;
33190;SDS011;19554;42.652;23.364;2023-08-21T10:36:38;7.60;;;4.80;;
33190;SDS011;19554;42.652;23.364;2023-08-21T10:41:55;9.73;;;5.13;;
33190;SDS011;19554;42.652;23.364;2023-08-21T10:49:53;8.18;;;4.75;;
33190;SDS011;19554;42.652;23.364;2023-08-21T10:52:21;13.13;;;5.13;;
33190;SDS011;19554;42.652;23.364;2023-08-21T10:54:59;7.13;;;5.05;;
33190;SDS011;19554;42.652;23.364;2023-08-21T10:57:26;8.10;;;4.28;;
33190;SDS011;19554;42.652;23.364;2023-08-21T10:59:57;8.60;;;4.85;;
33190;SDS011;19554;42.652;23.364;2023-08-21T11:04:49;8.23;;;4.90;;
33190;SDS011;19554;42.652;23.364;2023-08-21T11:07:15;9.70;;;4.90;;
33190;SDS011;19554;42.652;23.364;2023-08-21T11:09:41;11.05;;;5.38;;
33190;SDS011;19554;42.652;23.364;2023-08-21T11:12:11;12.57;;;5.07;;
33190;SDS011;19554;42.652;23.364;2023-08-21T11:14:38;6.75;;;4.78;;
33190;SDS011;19554;42.652;23.364;2023-08-21T11:17:04;11.20;;;4.93;;
33190;SDS011;19554;42.652;23.364;2023-08-21T11:19:30;8.38;;;4.63;;
33190;SDS011;19554;42.652;23.364;2023-08-21T11:21:57;10.05;;;5.05;;
33190;SDS011;19554;42.652;23.364;2023-08-21T11:24:29;12.27;;;5.45;;
33190;SDS011;19554;42.652;23.364;2023-08-21T11:27:18;7.57;;;5.25;;
33190;SDS011;19554;42.652;23.364;2023-08-21T11:32:15;9.75;;;4.90;;
33190;SDS011;19554;42.652;23.364;2023-08-21T11:34:50;5.85;;;4.13;;
33190;SDS011;19554;42.652;23.364;2023-08-21T11:37:18;5.38;;;4.50;;
33190;SDS011;19554;42.652;23.364;2023-08-21T11:39:46;7.38;;;4.88;;
33190;SDS011;19554;42.652;23.364;2023-08-21T11:42:14;6.78;;;4.45;;
33190;SDS011;19554;42.652;23.364;2023-08-21T11:45:01;9.40;;;4.28;;
33190;SDS011;19554;42.652;23.364;2023-08-21T11:47:32;7.78;;;4.70;;
33190;SDS011;19554;42.652;23.364;2023-08-21T11:50:06;5.60;;;4.25;;
33190;SDS011;19554;42.652;23.364;2023-08-21T11:52:34;8.95;;;4.75;;
33190;SDS011;19554;42.652;23.364;2023-08-21T11:55:06;8.15;;;4.70;;
33190;SDS011;19554;42.652;23.364;2023-08-21T11:57:34;7.32;;;4.63;;
33190;SDS011;19554;42.652;23.364;2023-08-21T11:59:59;6.55;;;4.50;;
33190;SDS011;19554;42.652;23.364;2023-08-21T12:02:26;10.50;;;4.82;;
33190;SDS011;19554;42.652;23.364;2023-08-21T12:04:53;9.05;;;4.65;;
33190;SDS011;19554;42.652;23.364;2023-08-21T12:07:31;7.47;;;4.57;;
33190;SDS011;19554;42.652;23.364;2023-08-21T12:09:57;9.23;;;4.55;;
33190;SDS011;19554;42.652;23.364;2023-08-21T12:12:23;6.10;;;4.68;;
33190;SDS011;19554;42.652;23.364;2023-08-21T12:14:49;6.80;;;4.43;;
33190;SDS011;19554;42.652;23.364;2023-08-21T12:17:14;7.97;;;4.50;;
33190;SDS011;19554;42.652;23.364;2023-08-21T12:19:40;9.07;;;4.85;;
33190;SDS011;19554;42.652;23.364;2023-08-21T12:22:06;9.45;;;4.65;;
33190;SDS011;19554;42.652;23.364;2023-08-21T12:24:32;11.35;;;4.55;;
33190;SDS011;19554;42.652;23.364;2023-08-21T12:26:57;7.65;;;4.65;;
33190;SDS011;19554;42.652;23.364;2023-08-21T12:29:23;7.70;;;4.53;;
33190;SDS011;19554;42.652;23.364;2023-08-21T12:31:48;8.25;;;4.68;;
33190;SDS011;19554;42.652;23.364;2023-08-21T12:34:14;8.32;;;4.47;;
33190;SDS011;19554;42.652;23.364;2023-08-21T12:36:39;5.82;;;4.72;;
33190;SDS011;19554;42.652;23.364;2023-08-21T12:39:05;6.75;;;4.55;;
33190;SDS011;19554;42.652;23.364;2023-08-21T12:41:31;7.88;;;4.78;;
33190;SDS011;19554;42.652;23.364;2023-08-21T12:44:00;5.80;;;4.35;;
33190;SDS011;19554;42.652;23.364;2023-08-21T12:46:28;8.45;;;4.90;;
33190;SDS011;19554;42.652;23.364;2023-08-21T12:48:54;11.60;;;4.95;;
33190;SDS011;19554;42.652;23.364;2023-08-21T12:51:20;9.68;;;5.10;;
33190;SDS011;19554;42.652;23.364;2023-08-21T12:53:46;8.70;;;4.90;;
33190;SDS011;19554;42.652;23.364;2023-08-21T12:56:11;6.10;;;4.30;;
33190;SDS011;19554;42.652;23.364;2023-08-21T12:58:37;8.52;;;5.07;;
33190;SDS011;19554;42.652;23.364;2023-08-21T13:01:02;10.20;;;4.72;;
33190;SDS011;19554;42.652;23.364;2023-08-21T13:03:29;6.95;;;4.85;;
33190;SDS011;19554;42.652;23.364;2023-08-21T13:05:54;10.82;;;5.90;;
33190;SDS011;19554;42.652;23.364;2023-08-21T13:08:20;9.07;;;5.05;;
33190;SDS011;19554;42.652;23.364;2023-08-21T13:10:46;9.00;;;4.95;;
33190;SDS011;19554;42.652;23.364;2023-08-21T13:13:11;7.90;;;4.68;;
33190;SDS011;19554;42.652;23.364;2023-08-21T13:15:37;6.57;;;4.95;;
33190;SDS011;19554;42.652;23.364;2023-08-21T13:18:03;7.22;;;5.03;;
33190;SDS011;19554;42.652;23.364;2023-08-21T13:20:29;8.30;;;4.70;;
33190;SDS011;19554;42.652;23.364;2023-08-21T13:22:54;7.93;;;4.78;;
33190;SDS011;19554;42.652;23.364;2023-08-21T13:25:20;6.53;;;4.50;;
33190;SDS011;19554;42.652;23.364;2023-08-21T13:27:48;7.65;;;4.90;;
33190;SDS011;19554;42.652;23.364;2023-08-21T13:30:14;11.52;;;4.70;;
33190;SDS011;19554;42.652;23.364;2023-08-21T13:32:40;6.68;;;4.25;;
33190;SDS011;19554;42.652;23.364;2023-08-21T13:35:05;9.38;;;5.25;;
33190;SDS011;19554;42.652;23.364;2023-08-21T13:37:37;9.02;;;4.50;;
33190;SDS011;19554;42.652;23.364;2023-08-21T13:40:04;7.65;;;5.05;;
33190;SDS011;19554;42.652;23.364;2023-08-21T13:42:38;5.28;;;4.47;;
33190;SDS011;19554;42.652;23.364;2023-08-21T13:45:06;7.15;;;4.70;;
33190;SDS011;19554;42.652;23.364;2023-08-21T13:47:33;5.57;;;4.68;;
33190;SDS011;19554;42.652;23.364;2023-08-21T13:49:59;8.07;;;4.93;;
33190;SDS011;19554;42.652;23.364;2023-08-21T13:52:24;6.63;;;4.70;;
33190;SDS011;19554;42.652;23.364;2023-08-21T13:54:49;8.35;;;4.18;;
33190;SDS011;19554;42.652;23.364;2023-08-21T13:57:15;6.50;;;4.38;;
33190;SDS011;19554;42.652;23.364;2023-08-21T13:59:40;8.38;;;5.03;;
33190;SDS011;19554;42.652;23.364;2023-08-21T14:02:06;8.70;;;4.40;;
33190;SDS011;19554;42.652;23.364;2023-08-21T14:04:32;6.28;;;4.68;;
33190;SDS011;19554;42.652;23.364;2023-08-21T14:06:57;8.57;;;4.47;;
33190;SDS011;19554;42.652;23.364;2023-08-21T14:09:23;8.32;;;4.80;;
33190;SDS011;19554;42.652;23.364;2023-08-21T14:11:48;9.57;;;4.63;;
33190;SDS011;19554;42.652;23.364;2023-08-21T14:14:14;8.45;;;4.72;;
33190;SDS011;19554;42.652;23.364;2023-08-21T14:16:39;5.75;;;5.13;;
33190;SDS011;19554;42.652;23.364;2023-08-21T14:19:05;5.10;;;4.60;;
33190;SDS011;19554;42.652;23.364;2023-08-21T14:21:30;6.10;;;5.00;;
33190;SDS011;19554;42.652;23.364;2023-08-21T14:23:55;6.40;;;4.55;;
33190;SDS011;19554;42.652;23.364;2023-08-21T14:26:21;6.70;;;4.32;;
33190;SDS011;19554;42.652;23.364;2023-08-21T14:28:46;5.43;;;4.90;;
33190;SDS011;19554;42.652;23.364;2023-08-21T14:31:15;9.90;;;4.82;;
33190;SDS011;19554;42.652;23.364;2023-08-21T14:33:41;7.28;;;5.03;;
33190;SDS011;19554;42.652;23.364;2023-08-21T14:36:06;11.10;;;5.47;;
33190;SDS011;19554;42.652;23.364;2023-08-21T14:38:32;7.82;;;5.00;;
33190;SDS011;19554;42.652;23.364;2023-08-21T14:40:57;5.55;;;4.40;;
33190;SDS011;19554;42.652;23.364;2023-08-21T14:43:23;10.15;;;4.85;;
33190;SDS011;19554;42.652;23.364;2023-08-21T14:45:49;10.25;;;4.43;;
33190;SDS011;19554;42.652;23.364;2023-08-21T14:48:16;6.55;;;4.28;;
33190;SDS011;19554;42.652;23.364;2023-08-21T14:50:42;10.90;;;5.07;;